Weather at Taroom Airport

Public forecast

Using degrees Celsius for public forecast. Weather courtesy of forecast.io.

Closest aviation weather report (METAR) to Taroom Airport

Closest report is Gladstone Airport, 136.6 nm (253.1 km) NNE.

2024/03/01 19:30 (retrieved 17 minutes ago)

YGLA 011930Z AUTO 20006KT 9999 // NCD 21/19 Q1014 RF000/0000

Closest aviation forecast (TAF) to Taroom Airport

Forecast is more than 12 hours old.

Closest forecast is Gladstone Airport, 136.6 nm (253.1 km) NNE.

2024/03/01 06:00 (retrieved 14 hours ago)

TAF YGLA 010507Z 0106/0118 06013KT 9999 FEW045 FM011000 10008KT 9999 FEW030 FM011400 20005KT 9999 FEW030